Time;durP1;ratioP1;P1;durP2;ratioP2;P2;SDS_P1;SDS_P2;PMS_P1;PMS_P2;Temp;Humidity;BMP_temperature;BMP_pressure;BME280_temperature;BME280_humidity;BME280_pressure;Samples;Min_cycle;Max_cycle;Signal;HPM_P1;HPM_P2
2023/10/22 00:01:26;;;;;;;1.98;1.20;;;22.10;56.30;;;;;;5037301;28;20020;-67
2023/10/22 00:03:51;;;;;;;3.00;1.20;;;22.00;56.30;;;;;;5036566;28;20028;-66
2023/10/22 00:06:17;;;;;;;1.60;1.05;;;22.00;56.30;;;;;;5038183;28;20033;-66
2023/10/22 00:08:43;;;;;;;1.60;1.10;;;22.00;56.30;;;;;;5037799;28;20025;-67
2023/10/22 00:11:09;;;;;;;2.08;1.23;;;22.00;56.30;;;;;;5036957;28;20029;-66
2023/10/22 00:13:35;;;;;;;1.77;1.20;;;22.00;56.30;;;;;;5036223;28;20396;-67
2023/10/22 00:16:01;;;;;;;2.00;1.20;;;22.00;56.30;;;;;;5035661;28;20575;-67
2023/10/22 00:18:26;;;;;;;2.17;1.20;;;22.00;56.30;;;;;;5037250;28;20111;-67
2023/10/22 00:20:52;;;;;;;1.80;1.20;;;22.00;56.30;;;;;;5037363;28;20037;-66
2023/10/22 00:23:18;;;;;;;1.90;1.13;;;22.00;56.30;;;;;;5041562;28;20017;-66
2023/10/22 00:25:43;;;;;;;2.17;1.10;;;22.00;56.40;;;;;;5040540;28;20456;-68
2023/10/22 00:28:09;;;;;;;1.50;1.17;;;22.00;56.30;;;;;;5042675;28;20037;-68
2023/10/22 00:30:36;;;;;;;1.95;1.20;;;22.00;56.30;;;;;;5042754;28;20385;-67
2023/10/22 00:33:02;;;;;;;1.55;1.10;;;21.90;56.30;;;;;;5039876;28;20040;-71
2023/10/22 00:35:27;;;;;;;2.20;1.30;;;21.90;56.30;;;;;;5040363;28;20029;-71
2023/10/22 00:37:53;;;;;;;2.05;1.15;;;21.90;56.30;;;;;;5041512;28;20389;-71
2023/10/22 00:40:18;;;;;;;1.67;1.10;;;21.90;56.30;;;;;;5040112;28;20022;-70
2023/10/22 00:42:44;;;;;;;2.25;1.20;;;21.90;56.30;;;;;;5038979;28;20499;-71
2023/10/22 00:45:10;;;;;;;2.40;1.17;;;21.90;56.30;;;;;;5040682;28;20025;-71
2023/10/22 00:47:36;;;;;;;1.52;1.10;;;21.90;56.30;;;;;;5042392;28;20381;-71
2023/10/22 00:50:03;;;;;;;1.42;1.00;;;21.90;56.40;;;;;;5042430;28;20493;-71
2023/10/22 00:52:29;;;;;;;1.60;1.10;;;21.90;56.40;;;;;;5039929;28;20029;-71
2023/10/22 00:54:55;;;;;;;2.92;1.20;;;21.90;56.40;;;;;;5039620;28;20037;-71
2023/10/22 00:57:24;;;;;;;1.88;1.10;;;21.90;56.40;;;;;;5039668;28;20055;-71
2023/10/22 00:59:52;;;;;;;1.60;1.13;;;21.90;56.40;;;;;;5038909;28;20060;-71
2023/10/22 01:02:19;;;;;;;2.22;1.20;;;21.80;56.30;;;;;;5038763;28;20024;-70
2023/10/22 01:04:45;;;;;;;2.00;1.20;;;21.90;56.40;;;;;;5040593;28;20037;-71
2023/10/22 01:07:11;;;;;;;1.52;1.10;;;21.80;56.40;;;;;;5039562;28;20017;-71
2023/10/22 01:09:37;;;;;;;1.95;1.10;;;21.80;56.30;;;;;;5041514;28;20474;-71
2023/10/22 01:12:04;;;;;;;1.60;1.10;;;21.80;56.40;;;;;;5038560;28;20041;-71
2023/10/22 01:14:30;;;;;;;1.70;1.10;;;21.80;56.40;;;;;;5040925;28;20123;-71
2023/10/22 01:16:56;;;;;;;1.70;1.10;;;21.80;56.40;;;;;;5041076;28;20025;-71
2023/10/22 01:19:22;;;;;;;1.30;0.90;;;21.80;56.40;;;;;;5039802;28;20018;-70
2023/10/22 01:21:49;;;;;;;1.60;1.05;;;21.80;56.40;;;;;;5039517;28;20025;-71
2023/10/22 01:24:14;;;;;;;1.60;1.00;;;21.80;56.40;;;;;;5039927;28;20507;-71
2023/10/22 01:26:41;;;;;;;2.17;1.30;;;21.80;56.40;;;;;;5039704;28;20026;-70
2023/10/22 01:29:07;;;;;;;2.25;1.30;;;21.80;56.40;;;;;;5039320;28;20056;-71
2023/10/22 01:31:32;;;;;;;1.70;1.08;;;21.70;56.40;;;;;;5041324;28;20088;-71
2023/10/22 01:33:58;;;;;;;1.25;0.98;;;21.70;56.40;;;;;;5039256;28;20083;-71
2023/10/22 01:36:24;;;;;;;1.50;1.00;;;21.70;56.40;;;;;;5041180;28;20083;-71
2023/10/22 01:38:49;;;;;;;1.88;1.10;;;21.70;56.40;;;;;;5040299;28;20025;-71
2023/10/22 01:41:15;;;;;;;1.60;1.00;;;21.70;56.40;;;;;;5037651;28;20025;-71
2023/10/22 01:43:41;;;;;;;1.95;1.25;;;21.70;56.40;;;;;;5041217;28;20025;-71
2023/10/22 01:46:06;;;;;;;1.25;1.00;;;21.70;56.40;;;;;;5037808;28;20033;-70
2023/10/22 01:48:32;;;;;;;1.48;1.10;;;21.70;56.40;;;;;;5041852;28;20038;-71
2023/10/22 01:50:58;;;;;;;2.15;1.10;;;21.70;56.40;;;;;;5040732;28;20549;-71
2023/10/22 01:53:23;;;;;;;1.75;1.10;;;21.70;56.50;;;;;;5039931;28;20059;-72
2023/10/22 01:55:49;;;;;;;1.90;1.08;;;21.70;57.00;;;;;;5039550;28;20525;-71
2023/10/22 01:58:15;;;;;;;1.33;1.08;;;21.70;56.40;;;;;;5038968;28;20029;-71
2023/10/22 02:00:41;;;;;;;2.08;1.13;;;21.70;56.50;;;;;;5039137;28;20700;-71
2023/10/22 02:03:06;;;;;;;2.05;1.10;;;21.70;56.40;;;;;;5040411;28;20028;-67
2023/10/22 02:05:33;;;;;;;2.13;1.00;;;21.70;56.50;;;;;;5039495;28;20041;-68
2023/10/22 02:07:59;;;;;;;3.08;1.20;;;21.70;56.50;;;;;;5038954;28;20053;-68
2023/10/22 02:10:25;;;;;;;1.40;0.93;;;21.60;56.40;;;;;;5041180;28;20033;-67
2023/10/22 02:12:50;;;;;;;1.67;1.10;;;21.70;56.50;;;;;;5038772;28;20032;-67
2023/10/22 02:15:17;;;;;;;1.55;1.02;;;21.70;56.50;;;;;;5039745;28;20397;-68
2023/10/22 02:17:42;;;;;;;1.58;1.00;;;21.60;56.50;;;;;;5038436;28;20039;-67
2023/10/22 02:20:09;;;;;;;1.65;1.05;;;21.60;56.50;;;;;;5040700;28;20033;-67
2023/10/22 02:22:38;;;;;;;1.30;0.90;;;21.60;56.40;;;;;;5040388;28;20434;-67
2023/10/22 02:25:05;;;;;;;1.30;0.90;;;21.60;56.50;;;;;;5041191;28;20021;-67
2023/10/22 02:27:31;;;;;;;2.05;1.02;;;21.60;56.40;;;;;;5038553;28;20037;-68
2023/10/22 02:29:57;;;;;;;1.70;1.00;;;21.60;56.50;;;;;;5040065;28;20033;-68
2023/10/22 02:32:23;;;;;;;1.05;0.80;;;21.60;56.40;;;;;;5040215;28;20029;-67
2023/10/22 02:34:49;;;;;;;1.63;1.20;;;21.60;56.40;;;;;;5039027;28;20500;-68
2023/10/22 02:37:15;;;;;;;1.52;0.95;;;21.60;56.40;;;;;;5041232;28;20021;-68
2023/10/22 02:39:41;;;;;;;1.75;1.10;;;21.60;56.40;;;;;;5037906;28;20052;-68
2023/10/22 02:42:07;;;;;;;2.25;1.20;;;21.60;56.40;;;;;;5037235;28;20021;-67
2023/10/22 02:44:33;;;;;;;1.90;1.00;;;21.60;56.50;;;;;;5038577;28;20029;-67
2023/10/22 02:46:59;;;;;;;1.45;1.05;;;21.60;56.40;;;;;;5039491;28;20335;-67
2023/10/22 02:49:25;;;;;;;1.52;1.00;;;21.60;56.40;;;;;;5040244;28;20098;-67
2023/10/22 02:51:52;;;;;;;1.10;0.90;;;21.60;56.40;;;;;;5040985;28;20096;-67
2023/10/22 02:54:18;;;;;;;1.50;1.05;;;21.60;56.40;;;;;;5040552;28;20033;-67
2023/10/22 02:56:43;;;;;;;1.08;0.88;;;21.60;56.40;;;;;;5039663;28;20043;-68
2023/10/22 02:59:09;;;;;;;1.27;0.90;;;21.60;56.50;;;;;;5038012;28;20025;-67
2023/10/22 03:01:40;;;;;;;1.35;0.95;;;21.50;56.40;;;;;;5040803;28;20021;-68
2023/10/22 03:04:06;;;;;;;1.27;0.90;;;21.50;56.40;;;;;;5038295;28;20128;-68
2023/10/22 03:06:31;;;;;;;1.40;0.95;;;21.50;56.40;;;;;;5039134;28;20103;-68
2023/10/22 03:08:57;;;;;;;1.35;1.00;;;21.50;56.40;;;;;;5039713;28;20445;-67
2023/10/22 03:11:23;;;;;;;1.55;0.95;;;21.50;56.40;;;;;;5038621;28;20031;-67
2023/10/22 03:13:50;;;;;;;1.40;1.05;;;21.50;56.40;;;;;;5037847;28;20095;-67
2023/10/22 03:16:16;;;;;;;1.20;0.90;;;21.50;56.40;;;;;;5039149;28;20033;-67
2023/10/22 03:18:45;;;;;;;1.13;0.88;;;21.50;56.40;;;;;;5038995;28;20036;-68
2023/10/22 03:21:16;;;;;;;1.40;1.00;;;21.50;56.40;;;;;;5039033;28;20026;-67
2023/10/22 03:23:42;;;;;;;1.42;0.90;;;21.50;56.40;;;;;;5037973;28;20507;-67
2023/10/22 03:26:09;;;;;;;1.80;1.20;;;21.50;56.40;;;;;;5039738;28;20017;-67
2023/10/22 03:28:38;;;;;;;1.33;1.00;;;21.50;56.40;;;;;;5036989;28;20017;-68
2023/10/22 03:31:04;;;;;;;1.40;0.90;;;21.50;56.40;;;;;;5038750;28;20060;-67
2023/10/22 03:33:31;;;;;;;1.00;0.70;;;21.50;56.50;;;;;;5038269;28;20519;-67
2023/10/22 03:35:58;;;;;;;1.40;0.90;;;21.50;56.50;;;;;;5037135;28;20112;-68
2023/10/22 03:38:26;;;;;;;0.90;0.73;;;21.50;56.50;;;;;;5037560;28;20379;-68
2023/10/22 03:41:03;;;;;;;1.10;0.80;;;21.40;56.50;;;;;;5036925;28;20036;-67
2023/10/22 03:43:30;;;;;;;1.33;0.80;;;21.40;56.40;;;;;;5035669;28;20033;-68
2023/10/22 03:45:57;;;;;;;1.40;0.98;;;21.40;56.50;;;;;;5038137;28;20025;-67
2023/10/22 03:48:23;;;;;;;1.67;1.00;;;21.40;56.50;;;;;;5037737;28;20539;-67
2023/10/22 03:50:49;;;;;;;1.13;0.90;;;21.40;56.50;;;;;;5037056;28;20092;-67
2023/10/22 03:53:14;;;;;;;1.30;0.98;;;21.50;56.50;;;;;;5037631;28;20505;-67
2023/10/22 03:55:40;;;;;;;1.58;0.95;;;21.40;57.00;;;;;;5036954;28;20026;-71
2023/10/22 03:58:06;;;;;;;1.65;0.90;;;21.40;56.50;;;;;;5039547;28;20029;-71
2023/10/22 04:00:32;;;;;;;1.25;0.90;;;21.40;56.50;;;;;;5037608;28;20029;-71
2023/10/22 04:02:58;;;;;;;1.48;0.90;;;21.40;56.50;;;;;;5037979;28;20508;-71
2023/10/22 04:05:24;;;;;;;1.45;1.05;;;21.40;56.50;;;;;;5037883;28;20053;-72
2023/10/22 04:07:50;;;;;;;1.35;0.98;;;21.40;56.50;;;;;;5037213;28;20057;-70
2023/10/22 04:10:16;;;;;;;1.17;0.80;;;21.40;56.50;;;;;;5037791;28;20021;-72
2023/10/22 04:12:42;;;;;;;0.82;0.77;;;21.40;56.50;;;;;;5038072;28;20329;-71
2023/10/22 04:15:08;;;;;;;1.20;0.90;;;21.40;56.50;;;;;;5038816;28;20515;-71
2023/10/22 04:17:34;;;;;;;1.55;0.90;;;21.40;56.50;;;;;;5039184;28;20507;-71
2023/10/22 04:20:00;;;;;;;1.05;0.85;;;21.40;56.60;;;;;;5038976;28;20038;-71
2023/10/22 04:22:26;;;;;;;1.30;0.80;;;21.30;56.50;;;;;;5038442;28;20538;-67
2023/10/22 04:24:52;;;;;;;1.30;0.90;;;21.40;56.60;;;;;;5036114;28;20017;-67
2023/10/22 04:27:18;;;;;;;1.33;0.80;;;21.30;56.50;;;;;;5035987;28;20075;-68
2023/10/22 04:29:46;;;;;;;1.10;0.90;;;21.40;57.10;;;;;;5038794;28;20140;-67
2023/10/22 04:32:12;;;;;;;1.25;0.88;;;21.30;56.50;;;;;;5038822;28;20033;-67
2023/10/22 04:34:39;;;;;;;1.50;0.95;;;21.30;56.60;;;;;;5036346;28;20040;-67
2023/10/22 04:37:05;;;;;;;1.10;0.90;;;21.30;56.60;;;;;;5035706;28;20061;-68
2023/10/22 04:39:30;;;;;;;1.10;0.80;;;21.30;56.60;;;;;;5038812;28;20064;-68
2023/10/22 04:41:56;;;;;;;0.73;0.70;;;21.30;56.60;;;;;;5036586;28;20025;-67
2023/10/22 04:44:22;;;;;;;0.93;0.70;;;21.30;56.60;;;;;;5035326;28;20063;-68
2023/10/22 04:46:49;;;;;;;1.15;0.85;;;21.30;56.60;;;;;;5037963;28;20091;-67
2023/10/22 04:49:14;;;;;;;0.88;0.75;;;21.30;56.70;;;;;;5039089;28;20468;-68
2023/10/22 04:51:40;;;;;;;0.93;0.73;;;21.30;56.60;;;;;;5038590;28;20025;-67
2023/10/22 04:54:06;;;;;;;1.20;0.88;;;21.30;56.60;;;;;;5039618;28;20167;-67
2023/10/22 04:56:32;;;;;;;1.08;0.70;;;21.30;56.60;;;;;;5038108;28;20034;-67
2023/10/22 04:58:58;;;;;;;1.23;0.85;;;21.30;56.70;;;;;;5035836;28;20033;-67
2023/10/22 05:01:23;;;;;;;1.08;0.80;;;21.30;56.70;;;;;;5037625;28;20047;-68
2023/10/22 05:03:49;;;;;;;1.13;0.80;;;21.30;57.20;;;;;;5035296;28;20489;-67
2023/10/22 05:06:15;;;;;;;1.02;0.80;;;21.30;56.70;;;;;;5037149;28;20469;-68
2023/10/22 05:08:41;;;;;;;1.10;0.82;;;21.30;56.70;;;;;;5038422;28;20453;-68
2023/10/22 05:11:15;;;;;;;0.80;0.70;;;21.30;56.70;;;;;;5042403;28;20075;-67
2023/10/22 05:13:45;;;;;;;1.25;0.90;;;21.20;56.70;;;;;;5040223;28;20030;-67
2023/10/22 05:16:11;;;;;;;1.30;0.90;;;21.30;56.70;;;;;;5040577;28;20017;-68
2023/10/22 05:18:37;;;;;;;1.45;0.90;;;21.30;56.80;;;;;;5040491;28;20020;-68
2023/10/22 05:21:05;;;;;;;1.85;0.95;;;21.30;56.80;;;;;;5039656;28;20051;-67
2023/10/22 05:23:32;;;;;;;1.33;0.90;;;21.30;56.80;;;;;;5041765;28;20025;-68
2023/10/22 05:26:09;;;;;;;1.25;0.80;;;21.30;56.80;;;;;;5042293;28;20025;-67
2023/10/22 05:28:35;;;;;;;1.35;0.80;;;21.30;56.80;;;;;;5039590;28;20030;-67
2023/10/22 05:31:00;;;;;;;1.20;0.80;;;21.30;56.80;;;;;;5039117;28;20618;-68
2023/10/22 05:33:26;;;;;;;1.40;0.90;;;21.20;56.80;;;;;;5041325;28;20037;-70
2023/10/22 05:35:52;;;;;;;0.77;0.68;;;21.20;56.80;;;;;;5040348;28;20385;-71
2023/10/22 05:38:17;;;;;;;1.10;0.80;;;21.20;56.70;;;;;;5040962;28;20029;-71
2023/10/22 05:40:43;;;;;;;1.10;0.80;;;21.20;56.70;;;;;;5040820;28;20037;-70
2023/10/22 05:43:08;;;;;;;0.82;0.70;;;21.20;57.30;;;;;;5039942;28;20484;-70
2023/10/22 05:45:35;;;;;;;1.17;0.90;;;21.20;56.70;;;;;;5039944;28;20029;-70
2023/10/22 05:48:01;;;;;;;1.42;0.95;;;21.20;56.70;;;;;;5039189;28;20173;-70
2023/10/22 05:50:26;;;;;;;0.95;0.80;;;21.20;56.70;;;;;;5039902;28;20541;-70
2023/10/22 05:52:52;;;;;;;1.30;0.80;;;21.20;56.70;;;;;;5038358;28;20044;-70
2023/10/22 05:55:18;;;;;;;1.20;0.80;;;21.20;56.70;;;;;;5039086;28;20599;-70
2023/10/22 05:57:45;;;;;;;1.60;0.90;;;21.20;56.70;;;;;;5040141;28;20396;-69
2023/10/22 06:00:12;;;;;;;1.23;0.90;;;21.20;56.70;;;;;;5041063;28;20032;-70
2023/10/22 06:02:37;;;;;;;1.67;0.80;;;21.20;56.60;;;;;;5040025;28;20033;-70
2023/10/22 06:05:04;;;;;;;1.05;0.70;;;21.20;56.60;;;;;;5040504;28;20036;-70
2023/10/22 06:07:30;;;;;;;1.17;0.80;;;21.20;56.60;;;;;;5039921;28;20060;-70
2023/10/22 06:09:55;;;;;;;1.23;0.77;;;21.20;56.60;;;;;;5040912;28;20029;-70
2023/10/22 06:12:21;;;;;;;1.48;0.90;;;21.20;56.60;;;;;;5038884;28;20079;-70
2023/10/22 06:14:47;;;;;;;1.35;0.93;;;21.20;56.60;;;;;;5039357;28;20435;-70
2023/10/22 06:17:12;;;;;;;1.42;0.80;;;21.20;56.60;;;;;;5041914;28;20033;-70
2023/10/22 06:19:38;;;;;;;1.48;0.68;;;21.20;56.70;;;;;;5037920;28;20064;-70
2023/10/22 06:22:04;;;;;;;1.45;0.77;;;21.20;56.70;;;;;;5038957;28;20021;-70
2023/10/22 06:24:29;;;;;;;1.13;0.82;;;21.20;56.70;;;;;;5040596;28;20025;-67
2023/10/22 06:26:55;;;;;;;1.20;0.80;;;21.10;56.60;;;;;;5040457;28;20059;-67
2023/10/22 06:29:20;;;;;;;0.77;0.60;;;21.20;56.60;;;;;;5038221;28;20442;-67
2023/10/22 06:31:46;;;;;;;1.33;0.80;;;21.10;56.60;;;;;;5038659;28;20090;-67
2023/10/22 06:34:12;;;;;;;0.90;0.70;;;21.20;56.60;;;;;;5037448;28;20374;-68
2023/10/22 06:36:37;;;;;;;1.50;1.02;;;21.10;56.60;;;;;;5039913;28;20026;-67
2023/10/22 06:39:03;;;;;;;0.95;0.80;;;21.10;56.60;;;;;;5040001;28;20029;-67
2023/10/22 06:41:29;;;;;;;0.95;0.70;;;21.10;56.60;;;;;;5040825;28;20087;-67
2023/10/22 06:43:54;;;;;;;2.08;0.85;;;21.10;56.60;;;;;;5038332;28;20439;-70
2023/10/22 06:46:20;;;;;;;1.40;0.80;;;21.10;56.50;;;;;;5040228;28;20032;-71
2023/10/22 06:48:47;;;;;;;0.90;0.70;;;21.10;56.50;;;;;;5038195;28;20032;-71
2023/10/22 06:51:17;;;;;;;1.35;0.85;;;21.10;56.60;;;;;;5038760;28;20037;-70
2023/10/22 06:53:44;;;;;;;1.52;0.80;;;21.10;56.60;;;;;;5039243;28;20049;-71
2023/10/22 06:56:11;;;;;;;1.20;0.70;;;21.10;56.60;;;;;;5037043;28;20026;-71
2023/10/22 06:58:37;;;;;;;1.38;0.85;;;21.10;56.50;;;;;;5036223;28;20033;-70
2023/10/22 07:01:07;;;;;;;1.00;0.90;;;21.10;56.50;;;;;;5039757;28;20365;-70
2023/10/22 07:03:40;;;;;;;1.15;0.80;;;21.10;56.50;;;;;;5040163;28;20034;-70
2023/10/22 07:06:06;;;;;;;0.82;0.70;;;21.10;56.50;;;;;;5039573;28;20362;-71
2023/10/22 07:08:32;;;;;;;0.77;0.70;;;21.10;56.50;;;;;;5039047;28;20079;-71
2023/10/22 07:10:58;;;;;;;1.20;0.70;;;21.10;56.50;;;;;;5040665;28;20091;-72
2023/10/22 07:13:24;;;;;;;1.23;0.80;;;21.10;56.50;;;;;;5037958;28;20033;-71
2023/10/22 07:15:51;;;;;;;1.10;0.82;;;21.10;56.50;;;;;;5039285;28;20036;-71
2023/10/22 07:18:17;;;;;;;0.73;0.70;;;21.10;56.50;;;;;;5037029;28;20025;-71
2023/10/22 07:20:43;;;;;;;0.70;0.63;;;21.10;56.50;;;;;;5036625;28;20055;-71
2023/10/22 07:23:09;;;;;;;1.30;0.85;;;21.10;56.50;;;;;;5037994;28;20025;-71
2023/10/22 07:25:36;;;;;;;0.95;0.75;;;21.10;56.50;;;;;;5039013;28;20025;-71
2023/10/22 07:28:02;;;;;;;1.02;0.70;;;21.10;56.40;;;;;;5038753;28;20020;-70
2023/10/22 07:30:29;;;;;;;1.20;0.80;;;21.10;56.40;;;;;;5045394;28;20083;-70
2023/10/22 07:32:55;;;;;;;0.90;0.70;;;21.10;56.50;;;;;;5039188;28;20393;-67
2023/10/22 07:35:21;;;;;;;1.52;0.80;;;21.10;56.40;;;;;;5039102;28;20017;-67
2023/10/22 07:37:47;;;;;;;1.02;0.70;;;21.10;56.40;;;;;;5037285;28;20457;-66
2023/10/22 07:40:14;;;;;;;0.95;0.70;;;21.10;56.40;;;;;;5039299;28;20068;-66
2023/10/22 07:42:40;;;;;;;0.88;0.68;;;21.00;56.90;;;;;;5040174;28;20018;-68
2023/10/22 07:45:09;;;;;;;0.88;0.63;;;21.00;56.40;;;;;;5037683;28;20075;-66
2023/10/22 07:47:35;;;;;;;0.85;0.70;;;21.00;56.30;;;;;;5037844;28;20078;-66
2023/10/22 07:50:02;;;;;;;2.22;0.80;;;21.00;56.30;;;;;;5038824;28;20080;-66
2023/10/22 07:52:30;;;;;;;0.80;0.70;;;21.00;56.30;;;;;;5038908;28;20108;-70
2023/10/22 07:54:55;;;;;;;0.98;0.70;;;21.00;56.30;;;;;;5038064;28;20467;-67
2023/10/22 07:57:21;;;;;;;1.13;0.75;;;21.00;56.40;;;;;;5037098;28;20029;-68
2023/10/22 07:59:46;;;;;;;1.55;0.60;;;21.00;56.40;;;;;;5036667;28;20573;-68
2023/10/22 08:02:12;;;;;;;0.95;0.80;;;21.00;56.40;;;;;;5037900;28;20053;-67
2023/10/22 08:04:38;;;;;;;0.60;0.60;;;21.00;56.40;;;;;;5039079;28;20120;-67
2023/10/22 08:07:04;;;;;;;0.63;0.60;;;21.00;56.40;;;;;;5037732;28;20017;-69
2023/10/22 08:09:30;;;;;;;0.82;0.70;;;21.00;56.50;;;;;;5036924;28;20082;-67
2023/10/22 08:11:56;;;;;;;0.93;0.60;;;21.00;56.50;;;;;;5038555;28;20028;-67
2023/10/22 08:14:22;;;;;;;0.77;0.60;;;21.00;56.50;;;;;;5036824;28;20022;-67
2023/10/22 08:16:49;;;;;;;0.82;0.70;;;21.00;56.50;;;;;;5039123;28;20026;-68
2023/10/22 08:19:14;;;;;;;0.80;0.68;;;21.00;56.60;;;;;;5037520;28;20115;-68
2023/10/22 08:21:40;;;;;;;0.98;0.80;;;21.00;56.60;;;;;;5039005;28;20085;-67
2023/10/22 08:24:06;;;;;;;0.55;0.50;;;21.00;56.70;;;;;;5037975;28;20072;-67
2023/10/22 08:26:32;;;;;;;1.15;0.70;;;21.00;56.70;;;;;;5037185;28;20025;-68
2023/10/22 08:28:57;;;;;;;1.42;0.70;;;21.00;56.70;;;;;;5036266;28;20048;-67
2023/10/22 08:31:23;;;;;;;0.85;0.70;;;21.00;56.70;;;;;;5036512;28;20220;-67
2023/10/22 08:33:49;;;;;;;0.77;0.70;;;21.00;56.80;;;;;;5039071;28;20108;-67
2023/10/22 08:36:15;;;;;;;0.90;0.70;;;21.00;56.80;;;;;;5038475;28;20094;-67
2023/10/22 08:38:41;;;;;;;0.68;0.63;;;21.00;56.80;;;;;;5039618;28;20025;-67
2023/10/22 08:41:23;;;;;;;2.05;0.80;;;21.00;56.80;;;;;;5037873;28;20409;-67
2023/10/22 08:43:49;;;;;;;0.85;0.80;;;21.00;56.90;;;;;;5037339;28;20032;-70
2023/10/22 08:46:15;;;;;;;0.70;0.70;;;21.00;56.90;;;;;;5040606;28;20032;-71
2023/10/22 08:48:41;;;;;;;1.17;0.80;;;21.00;56.90;;;;;;5076363;28;20025;-70
2023/10/22 08:51:08;;;;;;;1.20;0.80;;;21.00;56.90;;;;;;5043263;28;20034;-72
2023/10/22 08:53:34;;;;;;;1.10;0.73;;;21.00;56.90;;;;;;5041234;28;20040;-70
2023/10/22 08:56:01;;;;;;;0.90;0.60;;;21.00;56.90;;;;;;5040350;28;20036;-70
2023/10/22 08:58:27;;;;;;;0.90;0.70;;;21.00;56.90;;;;;;5040739;28;20060;-70
2023/10/22 09:00:53;;;;;;;1.48;0.70;;;21.00;56.90;;;;;;5040747;28;20026;-70
2023/10/22 09:03:20;;;;;;;0.80;0.70;;;21.00;56.90;;;;;;5043740;28;20094;-66
2023/10/22 09:05:46;;;;;;;1.05;0.70;;;21.00;57.00;;;;;;5040424;28;20048;-67
2023/10/22 09:08:12;;;;;;;0.70;0.60;;;21.00;56.90;;;;;;5039776;28;20079;-66
2023/10/22 09:10:38;;;;;;;1.20;0.80;;;21.00;56.90;;;;;;5040696;28;20039;-66
2023/10/22 09:13:07;;;;;;;1.85;0.85;;;21.00;56.90;;;;;;5039428;28;20433;-68
2023/10/22 09:15:41;;;;;;;0.95;0.70;;;21.00;56.90;;;;;;5040774;28;20170;-67
2023/10/22 09:18:07;;;;;;;1.50;0.80;;;21.00;56.90;;;;;;5072612;28;20516;-67
2023/10/22 09:20:36;;;;;;;2.38;0.80;;;21.00;56.90;;;;;;5042025;28;20238;-67
2023/10/22 09:23:20;;;;;;;1.52;0.70;;;21.00;56.90;;;;;;5039133;28;20029;-66
2023/10/22 09:25:51;;;;;;;1.63;0.90;;;21.00;56.90;;;;;;5041115;28;20017;-68
2023/10/22 09:28:20;;;;;;;1.50;0.90;;;21.00;56.90;;;;;;5039820;28;20117;-67
2023/10/22 09:30:47;;;;;;;1.75;1.02;;;21.00;56.90;;;;;;5036266;28;20021;-67
2023/10/22 09:33:16;;;;;;;1.20;0.80;;;21.00;56.90;;;;;;5038099;28;20091;-68
2023/10/22 09:35:58;;;;;;;1.15;0.80;;;21.00;56.90;;;;;;5042358;28;20080;-67
2023/10/22 09:38:41;;;;;;;1.00;0.70;;;21.00;56.90;;;;;;5040322;28;20030;-67
2023/10/22 09:41:07;;;;;;;1.25;0.80;;;21.00;57.40;;;;;;5040511;28;20046;-69
2023/10/22 09:43:32;;;;;;;1.88;1.00;;;21.00;57.00;;;;;;5048830;28;20151;-67
2023/10/22 09:45:59;;;;;;;1.17;0.80;;;21.00;57.40;;;;;;5049475;28;20551;-68
2023/10/22 09:48:30;;;;;;;1.13;0.70;;;21.10;57.60;;;;;;5050162;28;20028;-69
2023/10/22 09:50:57;;;;;;;2.63;0.82;;;21.10;57.60;;;;;;5045272;28;20037;-67
2023/10/22 09:53:28;;;;;;;2.13;0.90;;;21.20;57.70;;;;;;5041355;28;20044;-72
2023/10/22 09:55:56;;;;;;;3.40;0.90;;;21.20;57.60;;;;;;5039382;28;20056;-73
2023/10/22 09:58:29;;;;;;;2.05;0.95;;;21.30;57.50;;;;;;5041500;28;20025;-72
2023/10/22 10:00:58;;;;;;;1.65;1.25;;;21.40;57.50;;;;;;5038334;28;20041;-72
2023/10/22 10:03:24;;;;;;;1.55;0.80;;;21.40;57.30;;;;;;5038375;28;20758;-73
2023/10/22 10:05:51;;;;;;;2.45;0.80;;;21.50;57.10;;;;;;5039392;28;20477;-73
2023/10/22 10:08:17;;;;;;;2.00;0.90;;;21.50;57.10;;;;;;5041693;28;20021;-72
2023/10/22 10:10:45;;;;;;;2.67;0.80;;;21.50;57.00;;;;;;5038461;28;20496;-73
2023/10/22 10:13:11;;;;;;;1.58;0.90;;;21.60;57.00;;;;;;5039521;28;20421;-72
2023/10/22 10:15:38;;;;;;;1.00;0.70;;;21.60;56.90;;;;;;5038384;28;20083;-72
2023/10/22 10:18:07;;;;;;;2.03;0.85;;;21.70;56.90;;;;;;5039166;28;20568;-72
2023/10/22 10:20:35;;;;;;;2.70;1.10;;;21.70;56.80;;;;;;5037804;28;20575;-73
2023/10/22 10:23:09;;;;;;;2.08;1.00;;;21.80;56.70;;;;;;5040321;28;20028;-68
2023/10/22 10:25:38;;;;;;;1.77;0.80;;;21.80;56.60;;;;;;5038694;28;20029;-68
2023/10/22 10:28:12;;;;;;;2.20;1.02;;;21.90;56.60;;;;;;5041853;28;20025;-66
2023/10/22 10:30:39;;;;;;;1.40;0.90;;;22.00;57.00;;;;;;5040692;28;20584;-67
2023/10/22 10:33:05;;;;;;;2.17;0.90;;;22.00;56.30;;;;;;5041335;28;20029;-68
2023/10/22 10:35:43;;;;;;;1.92;0.90;;;22.10;56.20;;;;;;5039541;28;20108;-67
2023/10/22 10:38:15;;;;;;;3.50;1.30;;;22.10;56.10;;;;;;5040000;28;20487;-67
2023/10/22 10:40:54;;;;;;;1.98;1.10;;;22.10;56.00;;;;;;5038030;28;20078;-68
2023/10/22 10:43:20;;;;;;;1.92;1.10;;;22.20;55.90;;;;;;5047072;28;20607;-67
2023/10/22 10:46:23;;;;;;;3.53;1.20;;;22.20;55.80;;;;;;5040700;28;20542;-67
2023/10/22 10:48:49;;;;;;;3.55;1.00;;;22.20;55.70;;;;;;5039611;28;20029;-68
2023/10/22 10:51:23;;;;;;;2.40;1.00;;;22.20;55.60;;;;;;5038909;28;20022;-67
2023/10/22 10:54:01;;;;;;;2.42;1.00;;;22.20;55.50;;;;;;5039415;28;20060;-67
2023/10/22 10:56:49;;;;;;;2.67;1.10;;;22.20;55.40;;;;;;5038807;28;20080;-66
2023/10/22 10:59:35;;;;;;;2.22;1.10;;;22.30;55.50;;;;;;5039480;28;20045;-67
2023/10/22 11:02:11;;;;;;;1.77;1.08;;;22.30;55.40;;;;;;5037085;28;20020;-67
2023/10/22 11:04:44;;;;;;;1.85;1.00;;;22.30;55.30;;;;;;5038572;28;20371;-68
2023/10/22 11:07:10;;;;;;;2.42;1.13;;;22.30;55.20;;;;;;5038245;28;20025;-68
2023/10/22 11:09:37;;;;;;;1.80;1.00;;;22.30;55.20;;;;;;5037418;28;20593;-68
2023/10/22 11:12:04;;;;;;;1.88;1.00;;;22.30;55.20;;;;;;5038950;28;20485;-68
2023/10/22 11:14:32;;;;;;;2.38;1.20;;;22.30;55.20;;;;;;5039107;28;20115;-68
2023/10/22 11:16:58;;;;;;;2.80;1.00;;;22.30;55.20;;;;;;5037811;28;20110;-68
2023/10/22 11:19:25;;;;;;;2.55;1.23;;;22.40;55.20;;;;;;5040323;28;20033;-68
2023/10/22 11:21:52;;;;;;;4.63;1.20;;;22.40;55.10;;;;;;5040497;28;20441;-68
2023/10/22 11:24:19;;;;;;;2.72;1.15;;;22.40;54.90;;;;;;5036004;28;20021;-68
2023/10/22 11:26:47;;;;;;;2.03;1.00;;;22.50;54.90;;;;;;5045841;28;20043;-68
2023/10/22 11:29:14;;;;;;;2.67;1.30;;;22.50;54.80;;;;;;5035843;28;20555;-68
2023/10/22 11:31:51;;;;;;;2.33;1.00;;;22.50;54.80;;;;;;5037198;28;20075;-67
2023/10/22 11:34:17;;;;;;;3.35;1.40;;;22.50;54.80;;;;;;5036664;28;20087;-74
2023/10/22 11:36:43;;;;;;;2.72;1.23;;;22.50;54.70;;;;;;5037149;28;20135;-72
2023/10/22 11:39:19;;;;;;;2.33;1.10;;;22.50;54.70;;;;;;5039199;28;20034;-75
2023/10/22 11:41:45;;;;;;;2.50;1.20;;;22.60;54.70;;;;;;5040746;28;20051;-74
2023/10/22 11:44:30;;;;;;;2.33;1.40;;;22.60;54.70;;;;;;5045665;28;20048;-74
2023/10/22 11:46:57;;;;;;;4.38;1.20;;;22.60;54.70;;;;;;5034784;28;20061;-73
2023/10/22 11:49:23;;;;;;;3.03;1.08;;;22.60;54.80;;;;;;5038476;28;20038;-72
2023/10/22 11:51:48;;;;;;;2.45;1.00;;;22.60;54.70;;;;;;5038638;28;20028;-72
2023/10/22 11:54:14;;;;;;;1.65;0.95;;;22.60;54.80;;;;;;5039378;28;20427;-72
2023/10/22 11:56:40;;;;;;;2.50;1.10;;;22.60;54.70;;;;;;5038947;28;20021;-72
2023/10/22 11:59:07;;;;;;;1.85;0.95;;;22.60;54.70;;;;;;5040219;28;20523;-72
2023/10/22 12:01:33;;;;;;;1.92;1.00;;;22.60;54.80;;;;;;5038104;28;20053;-73
2023/10/22 12:03:59;;;;;;;2.35;1.20;;;22.60;54.80;;;;;;5036954;28;20096;-73
2023/10/22 12:06:24;;;;;;;2.40;1.10;;;22.60;54.80;;;;;;5039119;28;20036;-73
2023/10/22 12:08:50;;;;;;;1.98;0.95;;;22.70;54.80;;;;;;5039966;28;20029;-73
2023/10/22 12:11:16;;;;;;;2.15;1.15;;;22.60;54.70;;;;;;5039873;28;20397;-73
2023/10/22 12:13:41;;;;;;;2.28;1.00;;;22.70;54.80;;;;;;5039908;28;20481;-68
2023/10/22 12:16:07;;;;;;;2.80;1.60;;;22.70;54.70;;;;;;5036527;28;20074;-68
2023/10/22 12:18:32;;;;;;;2.70;1.10;;;22.70;54.70;;;;;;5038991;28;20042;-69
2023/10/22 12:20:59;;;;;;;1.13;0.80;;;22.70;54.60;;;;;;5041711;28;20095;-69
2023/10/22 12:23:25;;;;;;;1.77;1.00;;;22.70;54.60;;;;;;5042500;28;20028;-68
2023/10/22 12:25:50;;;;;;;3.03;1.20;;;22.70;54.60;;;;;;5042456;28;20059;-67
2023/10/22 12:28:16;;;;;;;2.05;0.93;;;22.80;54.60;;;;;;5041169;28;20025;-68
2023/10/22 12:30:42;;;;;;;2.00;1.05;;;22.70;54.50;;;;;;5041266;28;20052;-67
2023/10/22 12:33:11;;;;;;;1.63;0.95;;;22.80;54.50;;;;;;5040013;28;20365;-73
2023/10/22 12:35:39;;;;;;;1.90;1.08;;;22.80;54.50;;;;;;5040124;28;20112;-73
2023/10/22 12:38:05;;;;;;;2.40;1.20;;;22.80;54.50;;;;;;5043309;28;20056;-72
2023/10/22 12:40:31;;;;;;;2.03;1.10;;;22.80;54.50;;;;;;5041280;28;20060;-72
2023/10/22 12:42:56;;;;;;;1.70;0.90;;;22.80;54.50;;;;;;5041294;28;20017;-71
2023/10/22 12:45:22;;;;;;;1.95;1.10;;;22.80;54.40;;;;;;5041275;28;20064;-71
2023/10/22 12:47:48;;;;;;;1.75;1.00;;;22.80;54.50;;;;;;5040029;28;20073;-71